createdAt,value
2024-04-09T00:00:54.756Z,33.91
2024-04-09T00:01:54.700Z,33.91
2024-04-09T00:02:54.856Z,33.91
2024-04-09T00:03:54.938Z,33.89
2024-04-09T00:04:54.953Z,33.90
2024-04-09T00:05:54.907Z,33.90
2024-04-09T00:06:54.901Z,33.91
2024-04-09T00:07:54.935Z,33.92
2024-04-09T00:08:55.033Z,33.90
2024-04-09T00:09:55.011Z,33.92
2024-04-09T00:10:55.041Z,33.92
2024-04-09T00:11:55.349Z,33.87
2024-04-09T00:12:55.136Z,33.86
2024-04-09T00:13:55.183Z,33.91
2024-04-09T00:14:55.282Z,33.89
2024-04-09T00:15:55.221Z,33.86
2024-04-09T00:16:55.537Z,33.87
2024-04-09T00:17:55.550Z,33.92
2024-04-09T00:18:55.466Z,33.88
2024-04-09T00:19:55.378Z,33.90
2024-04-09T00:20:55.428Z,33.89
2024-04-09T00:21:55.470Z,33.91
2024-04-09T00:22:55.493Z,33.94
2024-04-09T00:23:55.590Z,33.98
2024-04-09T00:24:55.567Z,33.91
2024-04-09T00:25:55.591Z,33.94
2024-04-09T00:26:55.666Z,33.97
2024-04-09T00:27:55.666Z,34.03
2024-04-09T00:28:55.697Z,33.98
2024-04-09T00:29:55.791Z,34.04
2024-04-09T00:30:55.818Z,34.01
2024-04-09T00:31:55.835Z,33.96
2024-04-09T00:32:55.984Z,34.01
2024-04-09T00:33:56.074Z,34.00
2024-04-09T00:34:55.959Z,33.98
2024-04-09T00:35:55.996Z,34.00
2024-04-09T00:36:56.027Z,34.01
2024-04-09T00:37:56.067Z,33.99
2024-04-09T00:38:56.164Z,33.99
2024-04-09T00:39:56.163Z,34.01
2024-04-09T00:40:56.187Z,33.99
2024-04-09T00:41:56.303Z,34.00
2024-04-09T00:42:56.282Z,33.99
2024-04-09T00:43:56.333Z,34.04
2024-04-09T00:44:56.433Z,33.98
2024-04-09T00:45:56.407Z,34.03
2024-04-09T00:46:56.450Z,34.00
2024-04-09T00:47:56.616Z,34.03
2024-04-09T00:48:56.576Z,34.01
2024-04-09T00:49:56.607Z,34.01
2024-04-09T00:50:56.633Z,33.96
2024-04-09T00:51:56.700Z,34.00
2024-04-09T00:52:56.712Z,33.92
2024-04-09T00:53:56.781Z,33.97
2024-04-09T00:54:56.789Z,33.92
2024-04-09T00:55:56.832Z,34.01
2024-04-09T00:56:56.894Z,33.97
2024-04-09T00:57:56.932Z,33.93
2024-04-09T00:58:56.963Z,33.94
2024-04-09T00:59:57.095Z,33.97
2024-04-09T01:00:57.092Z,33.98
2024-04-09T01:01:57.078Z,33.95
2024-04-09T01:02:57.249Z,33.93
2024-04-09T01:03:57.302Z,33.94
2024-04-09T01:04:57.251Z,33.95
2024-04-09T01:05:57.290Z,34.00
2024-04-09T01:06:57.329Z,33.92
2024-04-09T01:07:57.378Z,33.92
2024-04-09T01:08:57.471Z,33.89
2024-04-09T01:09:57.425Z,33.94
2024-04-09T01:10:57.506Z,33.93
2024-04-09T01:11:57.594Z,33.98
2024-04-09T01:12:57.604Z,33.98
2024-04-09T01:13:57.604Z,33.97
2024-04-09T01:14:57.668Z,33.98
2024-04-09T01:15:57.684Z,34.02
2024-04-09T01:16:57.760Z,34.03
2024-04-09T01:17:57.900Z,34.01
2024-04-09T01:18:57.908Z,33.99
2024-04-09T01:19:57.869Z,34.03
2024-04-09T01:20:58.001Z,33.95
2024-04-09T01:21:57.971Z,33.97
2024-04-09T01:22:58.027Z,33.97
2024-04-09T01:23:58.075Z,33.94
2024-04-09T01:24:58.129Z,33.94
2024-04-09T01:25:58.151Z,33.90
2024-04-09T01:26:58.241Z,33.93
2024-04-09T01:27:58.223Z,33.96
2024-04-09T01:28:58.255Z,33.92
2024-04-09T01:29:58.346Z,33.93
2024-04-09T01:30:58.351Z,33.98
2024-04-09T01:31:58.389Z,33.96
2024-04-09T01:32:58.594Z,33.96
2024-04-09T01:33:58.744Z,33.96
2024-04-09T01:34:58.544Z,33.97
2024-04-09T01:35:58.627Z,34.01
2024-04-09T01:36:58.639Z,33.97
2024-04-09T01:37:58.686Z,33.94
2024-04-09T01:38:58.747Z,33.98
2024-04-09T01:39:58.784Z,33.99
2024-04-09T01:40:58.834Z,33.99
2024-04-09T01:41:58.889Z,34.02
2024-04-09T01:42:58.922Z,34.01
2024-04-09T01:43:58.957Z,33.99
2024-04-09T01:44:59.004Z,34.03
2024-04-09T01:45:59.045Z,34.05
2024-04-09T01:46:59.120Z,34.02
2024-04-09T01:47:59.187Z,34.01
2024-04-09T01:48:59.239Z,34.00
2024-04-09T01:49:59.252Z,34.00
2024-04-09T01:50:59.290Z,33.99
2024-04-09T01:51:59.300Z,34.02
2024-04-09T01:52:59.345Z,33.98
2024-04-09T01:53:59.394Z,33.94
2024-04-09T01:54:59.444Z,33.92
2024-04-09T01:55:59.479Z,33.93
2024-04-09T01:56:59.540Z,33.98
2024-04-09T01:57:59.599Z,33.91
2024-04-09T01:58:59.626Z,33.97
2024-04-09T01:59:59.696Z,33.91
2024-04-09T02:00:59.764Z,33.94
2024-04-09T02:01:59.774Z,33.91
2024-04-09T02:02:59.925Z,33.90
2024-04-09T02:03:59.963Z,33.90
2024-04-09T02:04:59.911Z,33.92
2024-04-09T02:06:00.078Z,33.90
2024-04-09T02:07:00.006Z,33.91
2024-04-09T02:08:00.064Z,33.94
2024-04-09T02:09:00.135Z,33.95
2024-04-09T02:10:00.173Z,33.89
2024-04-09T02:11:00.187Z,33.91
2024-04-09T02:12:00.408Z,33.87
2024-04-09T02:13:00.305Z,33.94
2024-04-09T02:14:00.334Z,33.97
2024-04-09T02:15:00.485Z,33.94
2024-04-09T02:16:00.432Z,33.87
2024-04-09T02:17:00.470Z,33.94
2024-04-09T02:18:00.710Z,33.92
2024-04-09T02:19:00.590Z,33.94
2024-04-09T02:20:00.635Z,33.91
2024-04-09T02:21:00.769Z,33.94
2024-04-09T02:22:00.740Z,33.95
2024-04-09T02:23:00.795Z,33.96
2024-04-09T02:24:00.855Z,33.94
2024-04-09T02:25:00.912Z,33.94
2024-04-09T02:26:00.941Z,33.92
2024-04-09T02:27:01.020Z,33.95
2024-04-09T02:28:01.049Z,33.98
2024-04-09T02:29:01.099Z,33.94
2024-04-09T02:30:01.260Z,33.95
2024-04-09T02:31:01.203Z,33.96
2024-04-09T02:32:01.382Z,34.00
2024-04-09T02:33:01.341Z,33.99
2024-04-09T02:34:01.399Z,34.02
2024-04-09T02:35:01.408Z,33.99
2024-04-09T02:36:01.493Z,34.02
2024-04-09T02:37:01.508Z,34.02
2024-04-09T02:38:01.600Z,34.02
2024-04-09T02:39:01.647Z,34.00
2024-04-09T02:40:01.791Z,34.03
2024-04-09T02:41:01.778Z,34.02
2024-04-09T02:42:01.830Z,34.00
2024-04-09T02:43:01.793Z,34.03
2024-04-09T02:44:01.859Z,34.02
2024-04-09T02:45:01.929Z,34.02
2024-04-09T02:46:02.003Z,33.99
2024-04-09T02:47:02.150Z,34.04
2024-04-09T02:48:02.191Z,34.02
2024-04-09T02:49:02.283Z,34.09
2024-04-09T02:50:02.174Z,34.04
2024-04-09T02:51:02.362Z,34.05
2024-04-09T02:52:02.290Z,34.05
2024-04-09T02:53:02.359Z,34.08
2024-04-09T02:54:02.410Z,34.08
2024-04-09T02:55:02.464Z,34.05
2024-04-09T02:56:02.500Z,34.05
2024-04-09T02:57:02.610Z,34.05
2024-04-09T02:58:02.616Z,34.07
2024-04-09T02:59:02.681Z,34.03
2024-04-09T03:00:02.763Z,34.05
2024-04-09T03:01:02.823Z,34.08
2024-04-09T03:02:02.900Z,34.07
2024-04-09T03:03:02.960Z,34.04
2024-04-09T03:04:03.226Z,34.04
2024-04-09T03:05:03.011Z,34.04
2024-04-09T03:06:03.101Z,34.08
2024-04-09T03:07:03.130Z,34.03
2024-04-09T03:08:03.169Z,34.07
2024-04-09T03:09:03.275Z,34.07
2024-04-09T03:10:03.259Z,34.05
2024-04-09T03:11:03.332Z,34.10
2024-04-09T03:12:03.492Z,34.09
2024-04-09T03:13:03.486Z,34.16
2024-04-09T03:14:03.491Z,34.12
2024-04-09T03:15:03.587Z,34.13
2024-04-09T03:16:03.614Z,34.12
2024-04-09T03:17:03.631Z,34.15
2024-04-09T03:18:03.752Z,34.09
2024-04-09T03:19:03.756Z,34.10
2024-04-09T03:20:03.858Z,34.09
2024-04-09T03:21:03.849Z,34.16
2024-04-09T03:22:03.908Z,34.13
2024-04-09T03:23:03.964Z,34.14
2024-04-09T03:24:04.194Z,34.16
2024-04-09T03:25:04.048Z,34.10
2024-04-09T03:26:04.112Z,34.11
2024-04-09T03:27:04.206Z,34.14
2024-04-09T03:28:04.215Z,34.13
2024-04-09T03:29:04.256Z,34.09
2024-04-09T03:30:04.382Z,34.16
2024-04-09T03:31:04.392Z,34.13
2024-04-09T03:32:04.463Z,34.08
2024-04-09T03:33:04.652Z,34.10
2024-04-09T03:34:04.740Z,34.15
2024-04-09T03:35:04.634Z,34.09
2024-04-09T03:36:04.832Z,34.09
2024-04-09T03:37:04.712Z,34.13
2024-04-09T03:38:04.781Z,34.14
2024-04-09T03:39:04.886Z,34.13
2024-04-09T03:40:04.886Z,34.14
2024-04-09T03:41:04.966Z,34.13
2024-04-09T03:42:05.027Z,34.21
2024-04-09T03:43:05.077Z,34.18
2024-04-09T03:44:05.155Z,34.19
2024-04-09T03:45:05.228Z,34.17
2024-04-09T03:46:05.259Z,34.21
2024-04-09T03:47:05.302Z,34.14
2024-04-09T03:48:05.451Z,34.16
2024-04-09T03:49:05.584Z,34.11
2024-04-09T03:50:05.476Z,34.10
2024-04-09T03:51:05.547Z,34.11
2024-04-09T03:52:05.590Z,34.15
2024-04-09T03:53:05.628Z,34.15
2024-04-09T03:54:05.791Z,34.13
2024-04-09T03:55:05.739Z,34.13
2024-04-09T03:56:05.782Z,34.13
2024-04-09T03:57:05.883Z,34.17
2024-04-09T03:58:05.909Z,34.16
2024-04-09T03:59:05.950Z,34.19
2024-04-09T04:00:06.131Z,34.19
2024-04-09T04:01:09.054Z,34.22
2024-04-09T04:02:06.130Z,34.21
2024-04-09T04:03:06.158Z,34.21
2024-04-09T04:04:06.287Z,34.16
2024-04-09T04:05:06.106Z,34.17
2024-04-09T04:06:06.129Z,34.17
2024-04-09T04:07:06.109Z,34.23
2024-04-09T04:08:06.119Z,34.22
2024-04-09T04:09:06.173Z,34.22
2024-04-09T04:10:07.961Z,34.26
2024-04-09T04:11:06.132Z,34.19
2024-04-09T04:12:06.120Z,34.26
2024-04-09T04:13:06.105Z,34.20
2024-04-09T04:14:06.113Z,34.23
2024-04-09T04:15:06.123Z,34.26
2024-04-09T04:16:06.117Z,34.30
2024-04-09T04:17:06.227Z,34.27
2024-04-09T04:18:06.185Z,34.29
2024-04-09T04:19:06.180Z,34.27
2024-04-09T04:20:06.118Z,34.30
2024-04-09T04:21:08.879Z,34.24
2024-04-09T04:22:06.121Z,34.28
2024-04-09T04:23:06.173Z,34.33
2024-04-09T04:24:06.155Z,34.31
2024-04-09T04:25:06.127Z,34.30
2024-04-09T04:26:06.129Z,34.29
2024-04-09T04:27:06.215Z,34.31
2024-04-09T04:28:06.140Z,34.32
2024-04-09T04:29:06.128Z,34.29
2024-04-09T04:30:06.208Z,34.33
2024-04-09T04:31:06.132Z,34.29
2024-04-09T04:32:13.431Z,34.32
2024-04-09T04:33:13.502Z,34.30
2024-04-09T04:34:13.477Z,34.29
2024-04-09T04:35:13.392Z,34.33
2024-04-09T04:36:16.363Z,34.32
2024-04-09T04:37:13.400Z,34.25
2024-04-09T04:38:13.388Z,34.24
2024-04-09T04:39:13.420Z,34.25
2024-04-09T04:40:13.370Z,34.27
2024-04-09T04:41:13.445Z,34.16
2024-04-09T04:42:13.475Z,34.14
2024-04-09T04:43:13.407Z,34.10
2024-04-09T04:44:13.391Z,34.12
2024-04-09T04:45:13.457Z,34.14
2024-04-09T04:46:13.399Z,34.16
2024-04-09T04:47:13.383Z,34.19
2024-04-09T04:48:13.637Z,34.20
2024-04-09T04:49:13.588Z,34.19
2024-04-09T04:50:13.406Z,34.16
2024-04-09T04:51:13.460Z,34.17
2024-04-09T04:52:13.411Z,34.20
2024-04-09T04:53:13.406Z,34.20
2024-04-09T04:54:13.448Z,34.22
2024-04-09T04:55:13.430Z,34.22
2024-04-09T04:56:13.417Z,34.19
2024-04-09T04:57:13.503Z,34.23
2024-04-09T04:58:13.432Z,34.25
2024-04-09T04:59:13.406Z,34.25
2024-04-09T05:00:13.432Z,34.20
2024-04-09T05:01:13.452Z,34.24
2024-04-09T05:02:13.478Z,34.24
2024-04-09T05:03:13.650Z,34.23
2024-04-09T05:04:13.538Z,34.27
2024-04-09T05:05:13.422Z,34.19
2024-04-09T05:06:13.487Z,34.23
2024-04-09T05:07:13.448Z,34.16
2024-04-09T05:08:13.439Z,34.23
2024-04-09T05:09:13.466Z,34.17
2024-04-09T05:10:13.447Z,34.21
2024-04-09T05:11:13.455Z,34.17
2024-04-09T05:12:13.459Z,34.19
2024-04-09T05:13:13.463Z,34.17
2024-04-09T05:14:13.454Z,34.20
2024-04-09T05:15:13.482Z,34.19
2024-04-09T05:16:13.456Z,34.18
2024-04-09T05:17:13.426Z,34.20
2024-04-09T05:18:13.674Z,34.20
2024-04-09T05:19:13.656Z,34.23
2024-04-09T05:20:13.583Z,34.24
2024-04-09T05:21:13.647Z,34.26
2024-04-09T05:22:13.701Z,34.22
2024-04-09T05:23:13.702Z,34.21
2024-04-09T05:24:13.800Z,34.24
2024-04-09T05:25:13.799Z,34.20
2024-04-09T05:26:13.834Z,34.23
2024-04-09T05:27:13.907Z,34.25
2024-04-09T05:28:14.059Z,34.17
2024-04-09T05:29:14.017Z,34.19
2024-04-09T05:30:14.127Z,34.16
2024-04-09T05:31:14.082Z,34.20
2024-04-09T05:32:14.193Z,34.16
2024-04-09T05:33:14.232Z,34.16
2024-04-09T05:34:14.275Z,34.17
2024-04-09T05:35:14.257Z,34.14
2024-04-09T05:36:14.365Z,34.38
2024-04-09T05:37:14.343Z,34.32
2024-04-09T05:38:14.428Z,34.36
2024-04-09T05:39:14.469Z,34.21
2024-04-09T05:40:14.540Z,34.24
2024-04-09T05:41:14.566Z,34.19
2024-04-09T05:42:14.606Z,34.16
2024-04-09T05:43:15.496Z,34.52
2024-04-09T05:44:14.684Z,34.72
2024-04-09T05:45:14.824Z,34.72
2024-04-09T05:46:14.684Z,34.94
2024-04-09T05:47:14.756Z,35.11
2024-04-09T05:48:15.198Z,35.13
2024-04-09T05:49:14.911Z,35.43
2024-04-09T05:50:14.966Z,35.59
2024-04-09T05:51:14.819Z,35.95
2024-04-09T05:52:14.757Z,36.32
2024-04-09T05:53:14.761Z,36.33
2024-04-09T05:54:14.814Z,36.40
2024-04-09T05:55:14.821Z,36.35
2024-04-09T05:56:14.843Z,36.26
2024-04-09T05:57:14.936Z,35.99
2024-04-09T05:58:14.981Z,36.02
2024-04-09T05:59:14.949Z,35.82
2024-04-09T06:01:15.040Z,35.78
2024-04-09T06:02:14.992Z,35.89
2024-04-09T06:03:15.058Z,35.93
2024-04-09T06:04:17.159Z,36.05
2024-04-09T06:05:14.989Z,36.01
2024-04-09T06:06:15.038Z,36.05
2024-04-09T06:07:14.983Z,36.05
2024-04-09T06:08:15.017Z,36.07
2024-04-09T06:09:15.059Z,36.12
2024-04-09T06:10:15.026Z,36.08
2024-04-09T06:11:15.119Z,36.09
2024-04-09T06:12:15.065Z,36.11
2024-04-09T06:13:15.081Z,36.12
2024-04-09T06:14:15.108Z,36.11
2024-04-09T06:15:15.167Z,36.17
2024-04-09T06:16:15.122Z,36.10
2024-04-09T06:17:15.162Z,36.21
2024-04-09T06:18:15.440Z,36.24
2024-04-09T06:19:16.133Z,36.22
2024-04-09T06:20:15.243Z,36.22
2024-04-09T06:21:15.228Z,36.26
2024-04-09T06:22:15.220Z,36.28
2024-04-09T06:23:15.249Z,36.31
2024-04-09T06:24:15.301Z,36.27
2024-04-09T06:25:15.270Z,36.24
2024-04-09T06:26:15.323Z,36.30
2024-04-09T06:27:15.412Z,36.29
2024-04-09T06:28:15.567Z,36.32
2024-04-09T06:29:15.532Z,36.31
2024-04-09T06:30:15.447Z,36.35
2024-04-09T06:31:15.414Z,36.36
2024-04-09T06:32:15.570Z,36.37
2024-04-09T06:33:16.096Z,36.34
2024-04-09T06:34:15.591Z,36.33
2024-04-09T06:35:15.512Z,36.37
2024-04-09T06:36:25.082Z,36.37
2024-04-09T06:37:16.659Z,36.76
2024-04-09T06:38:15.542Z,36.67
2024-04-09T06:39:15.542Z,36.65
2024-04-09T06:40:15.530Z,36.76
2024-04-09T06:41:15.569Z,36.52
2024-04-09T06:42:15.587Z,36.24
2024-04-09T06:43:15.549Z,36.14
2024-04-09T06:44:15.541Z,36.42
2024-04-09T06:45:15.645Z,36.30
2024-04-09T06:46:15.559Z,36.19
2024-04-09T06:47:15.628Z,36.28
2024-04-09T06:48:15.706Z,36.37
2024-04-09T06:49:16.258Z,36.37
2024-04-09T06:50:15.559Z,36.58
2024-04-09T06:51:15.609Z,36.48
2024-04-09T06:52:15.568Z,36.55
2024-04-09T06:53:15.549Z,36.62
2024-04-09T06:54:15.890Z,36.71
2024-04-09T06:55:15.553Z,36.79
2024-04-09T06:56:15.572Z,36.87
2024-04-09T06:57:15.664Z,37.63
2024-04-09T06:58:15.550Z,37.49
2024-04-09T06:59:15.561Z,37.17
2024-04-09T07:00:15.609Z,37.24
2024-04-09T07:01:15.580Z,37.38
2024-04-09T07:02:15.575Z,37.36
2024-04-09T07:03:15.761Z,37.36
2024-04-09T07:04:16.400Z,37.37
2024-04-09T07:05:15.594Z,37.42
2024-04-09T07:06:15.648Z,37.47
2024-04-09T07:07:15.656Z,37.52
2024-04-09T07:08:15.625Z,37.52
2024-04-09T07:09:15.697Z,37.61
2024-04-09T07:10:15.696Z,37.57
2024-04-09T07:11:15.737Z,37.58
2024-04-09T07:12:15.764Z,37.60
2024-04-09T07:13:15.711Z,37.50
2024-04-09T07:14:15.706Z,37.52
2024-04-09T07:15:15.739Z,37.71
2024-04-09T07:16:15.707Z,37.68
2024-04-09T07:17:15.745Z,37.72
2024-04-09T07:18:15.836Z,37.82
2024-04-09T07:19:15.741Z,38.24
2024-04-09T07:20:15.733Z,37.93
2024-04-09T07:21:15.758Z,37.80
2024-04-09T07:22:15.771Z,38.39
2024-04-09T07:23:15.827Z,37.94
2024-04-09T07:24:15.853Z,37.61
2024-04-09T07:25:15.822Z,37.61
2024-04-09T07:26:15.908Z,37.41
2024-04-09T07:27:15.853Z,38.09
2024-04-09T07:28:15.847Z,38.06
2024-04-09T07:29:15.849Z,37.82
2024-04-09T07:30:15.954Z,37.68
2024-04-09T07:31:15.941Z,37.57
2024-04-09T07:32:15.892Z,37.46
2024-04-09T07:33:16.051Z,37.87
2024-04-09T07:34:15.915Z,38.11
2024-04-09T07:35:15.949Z,38.06
2024-04-09T07:36:16.166Z,37.71
2024-04-09T07:37:15.962Z,38.01
2024-04-09T07:38:15.963Z,38.25
2024-04-09T07:39:16.119Z,36.45
2024-04-09T07:40:16.007Z,34.93
2024-04-09T07:41:16.041Z,34.52
2024-04-09T07:42:16.091Z,34.05
2024-04-09T07:43:16.074Z,33.65
2024-04-09T07:44:16.118Z,33.57
2024-04-09T07:45:16.211Z,33.47
2024-04-09T07:46:16.160Z,33.24
2024-04-09T07:47:16.228Z,33.08
2024-04-09T07:48:16.339Z,32.86
2024-04-09T07:49:16.384Z,32.70
2024-04-09T07:50:16.302Z,32.73
2024-04-09T07:51:16.341Z,32.63
2024-04-09T07:52:16.352Z,32.57
2024-04-09T07:53:16.374Z,32.53
2024-04-09T07:54:16.430Z,32.50
2024-04-09T07:55:16.449Z,32.53
2024-04-09T07:56:16.464Z,32.50
2024-04-09T07:57:16.530Z,32.54
2024-04-09T07:58:16.529Z,32.73
2024-04-09T07:59:16.598Z,32.48
2024-04-09T08:00:16.631Z,32.50
2024-04-09T08:01:16.671Z,32.48
2024-04-09T08:02:16.670Z,32.35
2024-04-09T08:03:16.794Z,32.48
2024-04-09T08:04:16.952Z,32.21
2024-04-09T08:05:16.895Z,32.23
2024-04-09T08:06:16.953Z,32.34
2024-04-09T08:07:17.016Z,32.26
2024-04-09T08:08:17.014Z,32.34
2024-04-09T08:09:17.364Z,32.32
2024-04-09T08:10:17.040Z,32.23
2024-04-09T08:11:17.179Z,32.17
2024-04-09T08:12:17.224Z,32.17
2024-04-09T08:13:17.029Z,32.24
2024-04-09T08:14:16.999Z,32.32
2024-04-09T08:15:17.119Z,32.32
2024-04-09T08:16:17.058Z,32.31
2024-04-09T08:17:17.088Z,32.31
2024-04-09T08:18:17.198Z,32.34
2024-04-09T08:19:17.262Z,32.58
2024-04-09T08:20:17.359Z,32.58
2024-04-09T08:21:18.655Z,32.78
2024-04-09T08:22:17.169Z,33.09
2024-04-09T08:23:17.147Z,33.14
2024-04-09T08:24:17.297Z,33.38
2024-04-09T08:25:17.190Z,33.61
2024-04-09T08:26:17.171Z,33.64
2024-04-09T08:27:17.198Z,33.73
2024-04-09T08:28:17.157Z,33.77
2024-04-09T08:29:17.696Z,33.80
2024-04-09T08:30:17.220Z,33.92
2024-04-09T08:31:17.166Z,33.95
2024-04-09T08:32:17.221Z,34.01
2024-04-09T08:33:17.284Z,34.04
2024-04-09T08:34:17.752Z,34.09
2024-04-09T08:35:17.192Z,34.16
2024-04-09T08:36:17.288Z,34.22
2024-04-09T08:37:17.247Z,34.24
2024-04-09T08:38:17.411Z,34.26
2024-04-09T08:39:17.501Z,34.27
2024-04-09T08:40:17.347Z,34.34
2024-04-09T08:41:17.199Z,34.35
2024-04-09T08:42:17.214Z,34.70
2024-04-09T08:43:17.429Z,34.66
2024-04-09T08:44:17.188Z,34.57
2024-04-09T08:46:17.306Z,35.00
2024-04-09T08:47:17.225Z,35.39
2024-04-09T08:48:17.576Z,35.77
2024-04-09T08:49:17.851Z,35.54
2024-04-09T08:50:18.078Z,36.22
2024-04-09T08:51:17.821Z,35.46
2024-04-09T08:52:17.231Z,35.24
2024-04-09T08:53:17.198Z,35.01
2024-04-09T08:54:17.265Z,34.92
2024-04-09T08:55:21.157Z,34.81
2024-04-09T08:56:17.202Z,34.97
2024-04-09T08:57:17.256Z,34.84
2024-04-09T08:58:17.205Z,34.79
2024-04-09T08:59:17.614Z,34.99
2024-04-09T09:00:17.212Z,35.01
2024-04-09T09:01:17.364Z,34.92
2024-04-09T09:02:17.207Z,34.86
2024-04-09T09:03:17.436Z,34.74
2024-04-09T09:04:17.398Z,34.76
2024-04-09T09:05:17.310Z,34.60
2024-04-09T09:06:17.314Z,34.81
2024-04-09T09:07:17.233Z,34.80
2024-04-09T09:08:17.234Z,34.75
2024-04-09T09:09:17.672Z,34.52
2024-04-09T09:10:17.234Z,34.51
2024-04-09T09:11:17.652Z,34.43
2024-04-09T09:12:17.445Z,34.41
2024-04-09T09:13:17.502Z,34.64
2024-04-09T09:14:17.482Z,34.59
2024-04-09T09:15:17.659Z,34.73
2024-04-09T09:16:17.668Z,34.85
2024-04-09T09:17:17.660Z,34.92
2024-04-09T09:18:17.773Z,34.92
2024-04-09T09:19:17.861Z,34.99
2024-04-09T09:20:18.068Z,34.89
2024-04-09T09:21:17.930Z,34.99
2024-04-09T09:22:17.925Z,35.01
2024-04-09T09:23:17.993Z,34.93
2024-04-09T09:24:18.079Z,34.84
2024-04-09T09:25:18.084Z,34.98
2024-04-09T09:26:18.658Z,35.00
2024-04-09T09:27:18.231Z,35.06
2024-04-09T09:28:18.234Z,34.96
2024-04-09T09:29:18.628Z,35.01
2024-04-09T09:30:18.392Z,35.00
2024-04-09T09:31:18.466Z,35.08
2024-04-09T09:32:18.502Z,35.49
2024-04-09T09:33:18.536Z,35.48
2024-04-09T09:34:18.542Z,35.74
2024-04-09T09:35:18.586Z,35.53
2024-04-09T09:36:18.639Z,35.59
2024-04-09T09:37:18.676Z,35.75
2024-04-09T09:38:18.712Z,35.70
2024-04-09T09:39:18.803Z,35.67
2024-04-09T09:40:18.792Z,35.77
2024-04-09T09:41:18.799Z,35.79
2024-04-09T09:42:18.841Z,35.89
2024-04-09T09:43:18.930Z,35.91
2024-04-09T09:44:18.879Z,36.03
2024-04-09T09:45:18.929Z,36.17
2024-04-09T09:46:18.904Z,36.11
2024-04-09T09:47:18.947Z,36.18
2024-04-09T09:48:19.082Z,36.31
2024-04-09T09:49:20.226Z,36.37
2024-04-09T09:50:19.749Z,36.48
2024-04-09T09:51:19.099Z,36.54
2024-04-09T09:52:18.961Z,36.63
2024-04-09T09:53:19.197Z,36.69
2024-04-09T09:54:19.389Z,36.66
2024-04-09T09:55:19.113Z,36.80
2024-04-09T09:56:19.003Z,36.90
2024-04-09T09:57:19.102Z,36.95
2024-04-09T09:58:19.021Z,36.98
2024-04-09T09:59:19.033Z,37.22
2024-04-09T10:00:19.051Z,37.40
2024-04-09T10:01:19.301Z,37.40
2024-04-09T10:02:19.050Z,37.47
2024-04-09T10:03:19.151Z,37.36
2024-04-09T10:04:19.468Z,37.45
2024-04-09T10:05:19.183Z,37.61
2024-04-09T10:06:19.256Z,37.60
2024-04-09T10:07:19.152Z,37.85
2024-04-09T10:08:19.148Z,38.15
2024-04-09T10:09:19.222Z,38.28
2024-04-09T10:10:19.182Z,38.31
2024-04-09T10:11:19.274Z,38.34
2024-04-09T10:12:19.281Z,38.40
2024-04-09T10:13:19.242Z,38.51
2024-04-09T10:14:19.250Z,38.67
2024-04-09T10:15:19.443Z,38.80
2024-04-09T10:16:19.372Z,38.83
2024-04-09T10:17:19.474Z,38.92
2024-04-09T10:18:19.729Z,38.86
2024-04-09T10:19:19.615Z,38.95
2024-04-09T10:20:19.622Z,39.23
2024-04-09T10:21:19.692Z,39.18
2024-04-09T10:22:19.741Z,39.18
2024-04-09T10:23:19.793Z,39.11
2024-04-09T10:24:20.164Z,39.20
2024-04-09T10:25:19.951Z,39.85
2024-04-09T10:26:19.985Z,39.60
2024-04-09T10:27:20.101Z,39.52
2024-04-09T10:28:20.179Z,39.56
2024-04-09T10:29:20.703Z,39.43
2024-04-09T10:30:20.277Z,39.18
2024-04-09T10:31:20.313Z,39.08
2024-04-09T10:32:20.359Z,39.05
2024-04-09T10:33:20.442Z,38.87
2024-04-09T10:34:28.045Z,38.81
2024-04-09T10:35:20.363Z,38.75
2024-04-09T10:36:20.443Z,38.67
2024-04-09T10:37:20.362Z,38.84
2024-04-09T10:38:20.391Z,38.85
2024-04-09T10:39:20.467Z,39.07
2024-04-09T10:40:20.374Z,39.11
2024-04-09T10:41:20.367Z,38.98
2024-04-09T10:42:20.390Z,39.07
2024-04-09T10:43:20.366Z,39.11
2024-04-09T10:44:20.691Z,39.14
2024-04-09T10:45:20.412Z,39.10
2024-04-09T10:46:20.527Z,39.06
2024-04-09T10:47:20.487Z,39.01
2024-04-09T10:48:20.477Z,37.96
2024-04-09T10:49:20.798Z,37.80
2024-04-09T10:50:20.494Z,37.59
2024-04-09T10:51:22.601Z,37.51
2024-04-09T10:52:20.386Z,37.47
2024-04-09T10:53:20.416Z,36.86
2024-04-09T10:54:20.405Z,36.75
2024-04-09T10:55:20.376Z,36.93
2024-04-09T10:56:20.380Z,36.29
2024-04-09T10:57:21.607Z,36.53
2024-04-09T10:58:20.388Z,36.36
2024-04-09T10:59:20.420Z,36.06
2024-04-09T11:00:20.438Z,36.09
2024-04-09T11:01:20.411Z,35.82
2024-04-09T11:02:20.433Z,34.26
2024-04-09T11:03:22.659Z,32.20
2024-04-09T11:04:20.864Z,31.41
2024-04-09T11:05:20.445Z,32.20
2024-04-09T11:06:20.415Z,32.25
2024-04-09T11:07:20.399Z,32.01
2024-04-09T11:08:20.405Z,30.21
2024-04-09T11:09:20.459Z,29.86
2024-04-09T11:10:20.515Z,30.41
2024-04-09T11:11:20.478Z,30.05
2024-04-09T11:12:20.447Z,28.71
2024-04-09T11:13:20.397Z,26.26
2024-04-09T11:14:20.402Z,27.06
2024-04-09T11:15:20.525Z,26.10
2024-04-09T11:16:20.402Z,26.74
2024-04-09T11:17:20.583Z,25.70
2024-04-09T11:18:20.654Z,26.78
2024-04-09T11:19:20.537Z,27.22
2024-04-09T11:20:20.436Z,27.28
2024-04-09T11:21:20.471Z,27.42
2024-04-09T11:22:20.416Z,27.22
2024-04-09T11:23:20.412Z,27.32
2024-04-09T11:24:20.715Z,27.52
2024-04-09T11:25:22.310Z,27.58
2024-04-09T11:26:20.428Z,27.49
2024-04-09T11:27:20.461Z,27.28
2024-04-09T11:28:20.419Z,27.36
2024-04-09T11:29:20.435Z,27.40
2024-04-09T11:30:20.482Z,27.40
2024-04-09T11:31:22.355Z,27.33
2024-04-09T11:32:20.419Z,27.33
2024-04-09T11:33:20.627Z,27.34
2024-04-09T11:34:20.498Z,27.40
2024-04-09T11:35:20.495Z,27.42
2024-04-09T11:36:27.529Z,27.47
2024-04-09T11:37:21.985Z,27.61
2024-04-09T11:38:20.431Z,27.58
2024-04-09T11:39:20.482Z,27.60
2024-04-09T11:40:20.453Z,27.64
2024-04-09T11:41:20.435Z,27.70
2024-04-09T11:42:20.514Z,27.75
2024-04-09T11:43:20.454Z,27.88
2024-04-09T11:44:20.448Z,27.75
2024-04-09T11:45:20.453Z,27.78
2024-04-09T11:46:20.446Z,27.79
2024-04-09T11:47:20.523Z,27.74
2024-04-09T11:48:20.570Z,27.76
2024-04-09T11:49:20.512Z,27.83
2024-04-09T11:50:20.471Z,27.86
2024-04-09T11:51:20.459Z,27.83
2024-04-09T11:52:20.479Z,27.82
2024-04-09T11:53:22.498Z,27.82
2024-04-09T11:54:20.528Z,27.88
2024-04-09T11:55:22.581Z,27.96
2024-04-09T11:56:20.472Z,27.98
2024-04-09T11:57:20.524Z,27.89
2024-04-09T11:58:20.476Z,27.93
2024-04-09T11:59:20.477Z,27.90
2024-04-09T12:00:20.536Z,28.00
2024-04-09T12:01:20.602Z,27.96
2024-04-09T12:02:20.531Z,27.97
2024-04-09T12:03:20.550Z,27.97
2024-04-09T12:04:20.614Z,28.12
2024-04-09T12:05:20.519Z,28.16
2024-04-09T12:06:20.505Z,28.10
2024-04-09T12:07:20.532Z,28.14
2024-04-09T12:08:20.497Z,28.16
2024-04-09T12:09:20.577Z,28.13
2024-04-09T12:10:20.481Z,28.11
2024-04-09T12:11:22.424Z,28.10
2024-04-09T12:12:20.541Z,28.17
2024-04-09T12:13:20.493Z,28.10
2024-04-09T12:14:20.540Z,28.15
2024-04-09T12:15:20.757Z,28.20
2024-04-09T12:16:20.495Z,28.18
2024-04-09T12:17:22.032Z,28.21
2024-04-09T12:18:20.629Z,28.22
2024-04-09T12:19:20.566Z,28.31
2024-04-09T12:20:20.831Z,28.88
2024-04-09T12:21:20.589Z,29.06
2024-04-09T12:22:20.539Z,28.79
2024-04-09T12:23:22.025Z,29.48
2024-04-09T12:24:20.681Z,30.38
2024-04-09T12:25:20.650Z,32.10
2024-04-09T12:26:20.761Z,31.33
2024-04-09T12:27:20.729Z,30.21
2024-04-09T12:28:20.743Z,30.48
2024-04-09T12:29:22.331Z,34.56
2024-04-09T12:30:20.860Z,34.55
2024-04-09T12:31:21.783Z,35.78
2024-04-09T12:32:20.874Z,33.70
2024-04-09T12:33:21.035Z,32.66
2024-04-09T12:34:21.105Z,32.82
2024-04-09T12:35:22.903Z,33.35
2024-04-09T12:36:21.024Z,33.69
2024-04-09T12:37:21.014Z,33.81
2024-04-09T12:38:21.076Z,33.90
2024-04-09T12:39:21.130Z,33.91
2024-04-09T12:40:21.116Z,33.92
2024-04-09T12:41:23.304Z,34.12
2024-04-09T12:42:21.207Z,34.13
2024-04-09T12:43:21.137Z,34.18
2024-04-09T12:44:21.155Z,34.16
2024-04-09T12:45:21.203Z,34.04
2024-04-09T12:46:21.147Z,34.02
2024-04-09T12:47:22.243Z,33.89
2024-04-09T12:48:21.262Z,33.85
2024-04-09T12:49:27.938Z,33.82
2024-04-09T12:50:22.315Z,33.78
2024-04-09T12:51:21.191Z,33.60
2024-04-09T12:52:21.157Z,33.51
2024-04-09T12:53:21.153Z,33.41
2024-04-09T12:54:21.215Z,33.36
2024-04-09T12:55:21.148Z,33.25